Time;durP1;ratioP1;P1;durP2;ratioP2;P2;SDS_P1;SDS_P2;PMS_P1;PMS_P2;Temp;Humidity;BMP_temperature;BMP_pressure;BME280_temperature;BME280_humidity;BME280_pressure;Samples;Min_cycle;Max_cycle;Signal;HPM_P1;HPM_P2
2021/06/22 00:00:28;;;;;;;18.20;6.90;;;;;;;22.30;63.13;100224.38;5062417;28;20047;-62
2021/06/22 00:02:54;;;;;;;30.35;6.55;;;;;;;22.27;63.60;100226.34;5028341;28;20537;-63
2021/06/22 00:05:21;;;;;;;14.13;5.80;;;;;;;22.43;62.62;100227.09;5028487;28;20544;-64
2021/06/22 00:07:49;;;;;;;19.13;6.78;;;;;;;22.11;63.33;100237.16;4995507;28;20040;-65
2021/06/22 00:10:16;;;;;;;22.20;6.03;;;;;;;21.68;63.30;100215.88;5011781;28;20075;-63
2021/06/22 00:12:43;;;;;;;13.32;5.88;;;;;;;21.53;65.19;100227.44;5029075;28;20056;-63
2021/06/22 00:15:11;;;;;;;22.20;7.18;;;;;;;21.29;66.26;100232.47;5013225;28;20055;-65
2021/06/22 00:17:38;;;;;;;25.65;6.82;;;;;;;21.03;67.64;100234.00;5030217;28;20052;-62
2021/06/22 00:20:05;;;;;;;21.60;7.60;;;;;;;20.85;68.06;100227.09;5030447;28;20056;-64
2021/06/22 00:22:31;;;;;;;22.50;7.63;;;;;;;20.61;68.40;100222.25;5028774;28;20055;-64
2021/06/22 00:24:56;;;;;;;23.67;7.90;;;;;;;20.64;69.04;100237.16;5030425;28;20049;-65
2021/06/22 00:27:22;;;;;;;37.63;13.57;;;;;;;20.57;68.89;100239.31;5028477;28;20053;-63
2021/06/22 00:29:50;;;;;;;25.98;8.60;;;;;;;20.49;69.19;100222.97;5028336;28;20049;-66
2021/06/22 00:32:17;;;;;;;17.25;8.35;;;;;;;20.52;69.34;100236.06;5029078;28;20129;-64
2021/06/22 00:34:46;;;;;;;24.83;7.38;;;;;;;20.46;68.78;100249.72;5028619;28;20053;-64
2021/06/22 00:37:15;;;;;;;20.83;7.80;;;;;;;20.43;69.81;100249.88;5028676;28;20038;-64
2021/06/22 00:39:42;;;;;;;16.92;8.02;;;;;;;20.37;70.30;100247.53;5029964;28;20041;-64
2021/06/22 00:42:09;;;;;;;26.70;9.05;;;;;;;20.30;70.66;100243.50;5029521;28;20132;-66
2021/06/22 00:44:44;;;;;;;25.80;10.65;;;;;;;20.28;70.64;100246.25;5029375;28;20041;-65
2021/06/22 00:47:11;;;;;;;25.15;9.57;;;;;;;20.27;71.04;100241.88;5027849;28;20045;-65
2021/06/22 00:49:53;;;;;;;19.23;8.52;;;;;;;21.06;67.82;100231.16;5013094;28;20045;-64
2021/06/22 00:52:21;;;;;;;21.05;7.88;;;;;;;21.89;64.81;100242.97;5027970;28;20068;-71
2021/06/22 00:54:47;;;;;;;18.92;7.85;;;;;;;22.44;62.85;100248.34;5029078;28;20517;-64
2021/06/22 00:57:15;;;;;;;20.02;8.40;;;;;;;22.55;62.22;100246.78;5045713;28;20053;-65
2021/06/22 00:59:41;;;;;;;19.92;7.93;;;;;;;22.42;62.47;100242.25;5011256;28;20055;-64
2021/06/22 01:02:08;;;;;;;23.48;8.27;;;;;;;22.56;62.09;100245.81;5028761;28;20049;-67
2021/06/22 01:04:34;;;;;;;24.25;7.60;;;;;;;22.61;61.68;100238.38;5030065;28;20060;-63
2021/06/22 01:07:19;;;;;;;19.77;6.97;;;;;;;22.84;60.88;100243.06;5029208;28;20525;-64
2021/06/22 01:09:47;;;;;;;15.93;7.03;;;;;;;22.70;61.22;100233.28;5027777;28;20049;-64
2021/06/22 01:12:13;;;;;;;14.95;6.47;;;;;;;22.69;61.36;100242.22;5045017;28;20529;-64
2021/06/22 01:14:42;;;;;;;21.50;7.03;;;;;;;22.70;61.37;100246.63;4994576;28;20045;-64
2021/06/22 01:17:12;;;;;;;16.55;7.00;;;;;;;22.79;60.89;100250.47;5044314;28;20077;-65
2021/06/22 01:19:38;;;;;;;24.52;7.10;;;;;;;22.83;60.67;100249.34;5032135;28;20033;-64
2021/06/22 01:22:05;;;;;;;20.58;6.88;;;;;;;22.75;60.94;100243.63;5047162;28;20524;-64
2021/06/22 01:24:41;;;;;;;19.30;6.97;;;;;;;22.71;60.83;100237.66;5015314;28;20037;-65
2021/06/22 01:27:08;;;;;;;22.10;6.80;;;;;;;22.71;60.60;100248.31;5033243;28;20495;-64
2021/06/22 01:29:34;;;;;;;20.92;7.25;;;;;;;22.45;61.60;100234.03;5032612;28;20084;-64
2021/06/22 01:32:02;;;;;;;22.05;7.25;;;;;;;22.45;62.06;100250.03;5031891;28;20503;-65
2021/06/22 01:34:29;;;;;;;22.85;7.35;;;;;;;22.43;62.16;100256.44;5032725;28;20519;-65
2021/06/22 01:36:58;;;;;;;20.52;7.30;;;;;;;22.54;62.07;100261.06;5015128;28;20076;-69
2021/06/22 01:39:29;;;;;;;22.30;7.05;;;;;;;22.85;60.60;100260.78;5015172;28;20048;-65
2021/06/22 01:41:57;;;;;;;18.65;6.97;;;;;;;22.93;60.26;100252.25;5016807;28;20037;-66
2021/06/22 01:44:32;;;;;;;22.35;6.88;;;;;;;22.97;60.35;100256.44;5046181;28;20049;-65
2021/06/22 01:46:58;;;;;;;22.23;7.10;;;;;;;22.80;60.75;100254.88;5014646;28;20041;-65
2021/06/22 01:49:25;;;;;;;17.42;7.32;;;;;;;22.55;61.63;100266.28;5031281;28;20450;-65
2021/06/22 01:51:51;;;;;;;20.80;6.75;;;;;;;22.55;62.09;100262.78;5014728;28;20049;-64
2021/06/22 01:54:20;;;;;;;24.75;7.47;;;;;;;22.66;60.89;100273.59;5014603;28;20045;-64
2021/06/22 01:56:49;;;;;;;19.88;7.00;;;;;;;23.33;59.03;100269.97;5031079;28;20481;-65
2021/06/22 01:59:20;;;;;;;24.20;6.95;;;;;;;23.83;57.42;100275.47;5029755;28;20133;-64
2021/06/22 02:02:04;;;;;;;25.02;6.57;;;;;;;23.72;58.16;100270.84;5031153;28;20041;-65
2021/06/22 02:04:48;;;;;;;20.05;6.70;;;;;;;23.74;57.73;100269.78;5016322;28;20037;-63
2021/06/22 02:07:15;;;;;;;14.52;5.57;;;;;;;23.54;57.40;100272.97;5014638;28;20049;-65
2021/06/22 02:10:00;;;;;;;20.80;6.88;;;;;;;23.62;58.52;100261.78;5031724;28;20049;-65
2021/06/22 02:12:44;;;;;;;16.67;4.70;;;;;;;24.18;55.13;100276.50;5030930;28;20065;-65
2021/06/22 02:15:12;;;;;;;18.60;6.47;;;;;;;24.67;53.70;100283.66;5014242;28;20045;-65
2021/06/22 02:17:38;;;;;;;12.63;5.30;;;;;;;24.61;53.51;100254.69;5014656;28;20045;-64
2021/06/22 02:20:07;;;;;;;12.38;4.25;;;;;;;25.15;51.54;100276.47;5030135;28;20530;-65
2021/06/22 02:22:36;;;;;;;12.95;4.05;;;;;;;25.32;51.02;100268.03;5013931;28;20069;-65
2021/06/22 02:25:05;;;;;;;9.85;3.88;;;;;;;26.03;48.93;100278.63;5029599;28;20045;-63
2021/06/22 02:27:32;;;;;;;5.22;2.90;;;;;;;26.66;47.40;100280.59;5030319;28;20038;-66
2021/06/22 02:30:01;;;;;;;10.80;3.33;;;;;;;26.88;46.32;100272.50;5030195;28;20060;-65
2021/06/22 02:32:30;;;;;;;19.13;3.95;;;;;;;27.22;46.09;100288.50;5014428;28;20056;-64
2021/06/22 02:35:08;;;;;;;11.68;4.35;;;;;;;27.38;45.80;100278.13;5047529;28;20090;-63
2021/06/22 02:37:37;;;;;;;19.42;6.40;;;;;;;27.61;47.80;100294.19;5031097;28;20068;-65
2021/06/22 02:40:05;;;;;;;20.83;6.65;;;;;;;27.59;47.98;100288.06;5030667;28;20078;-64
2021/06/22 02:42:32;;;;;;;20.77;6.57;;;;;;;27.83;47.39;100288.63;5013396;28;20371;-65
2021/06/22 02:45:06;;;;;;;19.75;6.63;;;;;;;28.13;46.16;100296.69;5030307;28;20037;-65
2021/06/22 02:47:33;;;;;;;17.00;6.38;;;;;;;28.42;45.34;100298.69;5032658;28;20045;-65
2021/06/22 02:50:01;;;;;;;12.93;3.00;;;;;;;28.48;42.39;100301.69;5014750;28;20485;-65
2021/06/22 02:52:27;;;;;;;10.90;3.53;;;;;;;28.37;42.97;100295.56;5029041;28;20049;-64
2021/06/22 02:54:53;;;;;;;17.52;5.97;;;;;;;28.54;44.45;100281.44;5029537;28;20048;-64
2021/06/22 02:57:20;;;;;;;14.63;4.32;;;;;;;28.69;43.31;100300.72;5029494;28;20040;-64
2021/06/22 02:59:46;;;;;;;21.02;5.43;;;;;;;28.89;43.13;100296.22;5029527;28;20048;-68
2021/06/22 03:02:12;;;;;;;15.52;4.40;;;;;;;29.34;41.58;100288.44;5028969;28;20136;-63
2021/06/22 03:04:39;;;;;;;21.77;4.40;;;;;;;29.35;40.89;100299.06;5014043;28;20049;-63
2021/06/22 03:07:06;;;;;;;15.15;3.70;;;;;;;29.44;40.78;100294.69;5029945;28;20075;-63
2021/06/22 03:09:33;;;;;;;10.13;3.45;;;;;;;29.53;40.46;100291.13;5013720;28;20503;-64
2021/06/22 03:12:00;;;;;;;15.15;3.42;;;;;;;29.57;40.09;100283.59;5012384;28;20499;-64
2021/06/22 03:14:34;;;;;;;14.40;3.42;;;;;;;29.80;39.66;100286.81;5013411;28;20457;-64
2021/06/22 03:17:20;;;;;;;15.80;3.78;;;;;;;30.06;39.60;100289.75;5029238;28;20069;-65
2021/06/22 03:19:46;;;;;;;17.80;4.00;;;;;;;30.27;39.20;100291.19;5044521;28;20123;-64
2021/06/22 03:22:15;;;;;;;15.30;3.80;;;;;;;30.41;39.12;100287.13;5046300;28;20507;-64
2021/06/22 03:24:44;;;;;;;13.55;3.90;;;;;;;30.59;38.54;100290.78;5012705;28;20104;-64
2021/06/22 03:27:10;;;;;;;19.63;4.60;;;;;;;30.79;39.12;100290.63;5013251;28;20367;-65
2021/06/22 03:30:03;;;;;;;;;;;;;;;31.01;38.42;100289.31;5029760;28;20057;-64
2021/06/22 03:32:30;;;;;;;15.95;3.92;;;;;;;31.12;37.45;100287.22;5029084;28;19921;-65
2021/06/22 03:34:56;;;;;;;23.35;4.55;;;;;;;31.41;37.45;100287.00;5030072;28;20042;-64
2021/06/22 03:37:22;;;;;;;15.65;4.40;;;;;;;31.72;38.33;100279.31;5030172;28;20045;-65
2021/06/22 03:39:48;;;;;;;15.30;4.30;;;;;;;31.58;37.86;100285.25;5029276;28;20132;-64
2021/06/22 03:42:14;;;;;;;19.27;4.35;;;;;;;32.04;36.38;100283.22;5011629;28;20641;-65
2021/06/22 03:44:40;;;;;;;21.67;4.45;;;;;;;32.53;35.96;100279.69;5012967;28;20041;-65
2021/06/22 03:47:11;;;;;;;13.93;3.85;;;;;;;32.83;34.94;100281.00;4997476;28;20045;-65
2021/06/22 03:49:37;;;;;;;12.23;4.03;;;;;;;33.23;35.22;100292.88;5029271;28;20179;-65
2021/06/22 03:52:05;;;;;;;9.10;3.25;;;;;;;33.20;33.81;100298.63;5028594;28;20098;-64
2021/06/22 03:54:32;;;;;;;9.00;3.35;;;;;;;33.34;33.64;100302.56;5027965;28;20052;-64
2021/06/22 03:56:58;;;;;;;20.08;4.20;;;;;;;33.66;34.44;100294.41;5028902;28;20120;-66
2021/06/22 03:59:34;;;;;;;8.68;3.10;;;;;;;33.91;32.64;100297.09;5027348;28;20065;-65
2021/06/22 04:02:00;;;;;;;12.40;3.80;;;;;;;33.91;33.55;100294.38;5029201;28;20042;-66
2021/06/22 04:04:25;;;;;;;14.98;3.30;;;;;;;33.76;33.80;100295.06;5027529;28;20049;-64
2021/06/22 04:07:17;;;;;;;12.02;2.90;;;;;;;34.17;33.39;100299.53;4998750;28;20044;-66
2021/06/22 04:09:43;;;;;;;16.75;3.20;;;;;;;34.35;32.10;100298.34;5029226;28;20049;-65
2021/06/22 04:12:09;;;;;;;26.70;3.88;;;;;;;34.79;32.27;100303.19;5028776;28;20057;-64
2021/06/22 04:14:37;;;;;;;28.77;3.95;;;;;;;34.89;31.04;100292.94;5011705;28;20059;-66
2021/06/22 04:17:03;;;;;;;15.50;3.72;;;;;;;35.35;30.58;100298.41;5028343;28;20872;-65
2021/06/22 04:19:28;;;;;;;10.95;3.08;;;;;;;35.46;29.02;100284.34;5026062;28;20041;-65
2021/06/22 04:22:00;;;;;;;23.23;3.83;;;;;;;35.66;28.75;100301.00;5027935;28;20042;-65
2021/06/22 04:24:38;;;;;;;18.48;3.92;;;;;;;35.26;29.81;100299.47;5027243;28;20571;-65
2021/06/22 04:27:04;;;;;;;19.02;3.35;;;;;;;35.29;29.61;100299.09;5010922;28;20588;-67
2021/06/22 04:29:30;;;;;;;14.10;3.05;;;;;;;35.51;29.34;100298.25;5029685;28;20053;-65
2021/06/22 04:31:55;;;;;;;11.80;2.60;;;;;;;35.72;28.87;100294.00;5028187;28;20414;-66
2021/06/22 04:34:22;;;;;;;11.02;2.90;;;;;;;35.46;29.23;100289.78;5027440;28;20042;-65
2021/06/22 04:36:48;;;;;;;7.80;2.97;;;;;;;35.41;29.38;100294.09;5030096;28;20041;-65
2021/06/22 04:39:14;;;;;;;11.20;2.80;;;;;;;34.84;30.76;100305.38;4994692;28;20049;-65
2021/06/22 04:41:40;;;;;;;12.02;3.17;;;;;;;34.81;30.46;100301.13;5029370;28;20095;-65
2021/06/22 04:44:06;;;;;;;9.30;3.50;;;;;;;35.15;29.37;100297.19;5029272;28;20053;-66
2021/06/22 04:46:32;;;;;;;12.00;4.20;;;;;;;35.31;28.95;100297.06;5026700;28;20633;-65
2021/06/22 04:48:58;;;;;;;9.55;3.78;;;;;;;35.33;29.36;100297.75;5027756;28;20045;-65
2021/06/22 04:51:23;;;;;;;13.38;3.25;;;;;;;35.92;29.29;100306.91;5028338;28;20096;-64
2021/06/22 04:53:49;;;;;;;16.80;3.85;;;;;;;36.22;28.43;100299.53;5031152;28;20047;-64
2021/06/22 04:56:15;;;;;;;11.23;3.75;;;;;;;36.82;27.67;100303.06;4981585;28;20041;-66
2021/06/22 04:58:41;;;;;;;16.25;3.90;;;;;;;36.98;27.51;100308.25;5047526;28;20144;-65
2021/06/22 05:01:07;;;;;;;18.63;4.38;;;;;;;36.87;27.33;100312.34;5032935;28;20155;-67
2021/06/22 05:03:34;;;;;;;15.40;4.78;;;;;;;36.90;27.05;100308.38;5014922;28;20139;-66
2021/06/22 05:06:01;;;;;;;15.00;4.57;;;;;;;36.83;26.95;100308.31;5013694;28;20053;-65
2021/06/22 05:08:27;;;;;;;19.13;4.25;;;;;;;37.14;26.08;100294.34;5031080;28;20045;-64
2021/06/22 05:10:53;;;;;;;14.60;3.72;;;;;;;37.43;26.19;100312.50;5013944;28;20148;-65
2021/06/22 05:13:20;;;;;;;20.67;3.92;;;;;;;37.69;25.89;100305.56;5032204;28;20060;-65
2021/06/22 05:15:46;;;;;;;11.02;3.17;;;;;;;37.90;25.98;100313.72;5013016;28;20100;-65
2021/06/22 05:18:12;;;;;;;12.68;3.67;;;;;;;38.48;25.10;100314.25;5029946;28;20522;-66
2021/06/22 05:20:37;;;;;;;15.02;3.55;;;;;;;37.92;25.14;100311.66;5030551;28;20114;-66
2021/06/22 05:23:03;;;;;;;16.15;4.15;;;;;;;37.95;25.36;100321.34;5031519;28;20103;-64
2021/06/22 05:25:30;;;;;;;18.60;3.63;;;;;;;38.01;25.34;100304.97;5030790;28;20106;-65
2021/06/22 05:27:56;;;;;;;22.42;3.88;;;;;;;38.11;25.41;100315.53;5013542;28;20564;-65
2021/06/22 05:30:22;;;;;;;18.40;3.78;;;;;;;37.68;25.87;100315.63;5050033;28;20048;-64
2021/06/22 05:32:48;;;;;;;20.60;4.13;;;;;;;37.87;26.12;100311.38;5051039;28;20476;-67
2021/06/22 05:35:14;;;;;;;23.85;4.22;;;;;;;37.74;26.62;100311.28;5068671;28;20072;-65
2021/06/22 05:37:39;;;;;;;15.02;4.53;;;;;;;38.24;25.31;100298.41;5065798;28;20055;-66
2021/06/22 05:40:07;;;;;;;21.90;4.28;;;;;;;38.23;25.77;100316.69;5051200;28;20045;-66
2021/06/22 05:42:32;;;;;;;25.45;4.35;;;;;;;38.55;25.51;100300.63;5050114;28;20056;-64
2021/06/22 05:44:58;;;;;;;19.77;4.03;;;;;;;39.12;25.21;100313.88;5051435;28;20144;-64
2021/06/22 05:47:25;;;;;;;23.08;4.50;;;;;;;38.66;25.92;100320.06;5068378;28;20052;-64
2021/06/22 05:49:51;;;;;;;27.45;4.50;;;;;;;39.03;25.66;100305.00;5049914;28;20040;-66
2021/06/22 05:52:17;;;;;;;21.40;4.50;;;;;;;38.76;25.62;100303.25;5049660;28;20044;-65
2021/06/22 05:54:43;;;;;;;24.52;4.38;;;;;;;39.14;24.87;100311.75;5066237;28;20036;-65
2021/06/22 05:57:09;;;;;;;22.77;4.43;;;;;;;39.32;24.78;100308.41;5049832;28;20457;-66
2021/06/22 05:59:34;;;;;;;28.88;4.57;;;;;;;39.97;23.70;100307.56;5050419;28;20543;-64
2021/06/22 06:02:01;;;;;;;15.10;3.70;;;;;;;39.85;23.42;100311.16;5049261;28;20136;-64
2021/06/22 06:04:28;;;;;;;15.57;3.72;;;;;;;39.65;24.06;100292.84;5050637;28;20123;-64
2021/06/22 06:06:55;;;;;;;25.10;4.00;;;;;;;40.41;23.33;100296.91;5049792;28;20055;-65
2021/06/22 06:09:21;;;;;;;17.63;4.20;;;;;;;40.16;23.55;100299.53;5049333;28;20057;-64
2021/06/22 06:11:47;;;;;;;13.93;3.53;;;;;;;40.02;24.20;100294.06;5048358;28;20136;-66
2021/06/22 06:14:13;;;;;;;19.13;3.67;;;;;;;40.62;22.66;100294.69;5048014;28;20577;-65
2021/06/22 06:16:39;;;;;;;15.10;3.50;;;;;;;40.74;22.82;100292.09;5049899;28;20127;-66
2021/06/22 06:19:05;;;;;;;20.38;3.70;;;;;;;40.96;23.14;100309.09;5049922;28;20502;-67
2021/06/22 06:21:30;;;;;;;18.63;3.75;;;;;;;41.05;22.74;100301.44;5050030;28;20088;-66
2021/06/22 06:23:57;;;;;;;17.92;4.03;;;;;;;41.19;22.43;100295.63;5050235;28;20049;-65
2021/06/22 06:26:24;;;;;;;21.45;3.88;;;;;;;40.76;23.54;100289.13;5047486;28;20051;-65
2021/06/22 06:28:52;;;;;;;25.77;4.82;;;;;;;40.46;23.70;100300.69;5048708;28;20144;-65
2021/06/22 06:31:21;;;;;;;22.02;4.40;;;;;;;40.48;23.65;100298.56;5015984;28;20078;-66
2021/06/22 06:33:47;;;;;;;21.52;4.53;;;;;;;40.21;24.30;100291.47;5046545;28;20032;-66
2021/06/22 06:36:13;;;;;;;30.52;4.82;;;;;;;41.13;23.43;100293.75;5064718;28;20049;-66
2021/06/22 06:38:39;;;;;;;23.40;4.47;;;;;;;41.22;23.31;100300.69;5048156;28;20033;-64
2021/06/22 06:41:04;;;;;;;24.73;4.40;;;;;;;41.68;22.50;100299.47;5064800;28;20419;-65
2021/06/22 06:43:30;;;;;;;22.73;4.28;;;;;;;42.26;22.48;100293.56;5050662;28;20044;-65
2021/06/22 06:45:56;;;;;;;25.73;3.80;;;;;;;42.32;21.78;100287.13;5049256;28;20419;-65
2021/06/22 06:48:23;;;;;;;28.55;4.18;;;;;;;42.98;21.37;100297.28;5064286;28;20087;-66
2021/06/22 06:50:50;;;;;;;24.40;3.72;;;;;;;42.96;21.85;100293.91;5032195;28;20048;-65
2021/06/22 06:53:15;;;;;;;20.95;4.20;;;;;;;41.91;21.84;100290.56;5030532;28;20049;-65
2021/06/22 06:55:43;;;;;;;25.05;4.22;;;;;;;41.55;22.57;100294.06;5063597;28;20063;-64
2021/06/22 06:58:09;;;;;;;17.15;4.20;;;;;;;42.77;21.01;100295.03;5014882;28;20086;-64
2021/06/22 07:00:36;;;;;;;22.63;3.80;;;;;;;42.49;20.91;100285.47;5049489;28;20544;-65
2021/06/22 07:03:03;;;;;;;15.10;3.70;;;;;;;42.81;20.47;100299.00;5049210;28;20517;-68
2021/06/22 07:05:30;;;;;;;21.73;3.70;;;;;;;41.14;21.46;100281.72;5048511;28;20123;-65
2021/06/22 07:07:57;;;;;;;20.10;3.22;;;;;;;41.40;21.25;100296.31;5031832;28;20641;-64
2021/06/22 07:10:23;;;;;;;13.50;3.17;;;;;;;42.72;19.70;100294.91;5031607;28;20044;-65
2021/06/22 07:12:49;;;;;;;12.82;2.92;;;;;;;40.79;22.17;100288.72;5049234;28;20430;-65
2021/06/22 07:15:15;;;;;;;13.23;3.15;;;;;;;41.59;21.53;100282.38;5049873;28;20091;-66
2021/06/22 07:17:41;;;;;;;10.95;2.03;;;;;;;42.29;20.57;100282.09;5047892;28;20648;-65
2021/06/22 07:20:08;;;;;;;10.48;2.30;;;;;;;41.96;20.26;100276.13;5047520;28;20355;-69
2021/06/22 07:22:35;;;;;;;13.60;2.53;;;;;;;42.54;20.47;100284.78;5047498;28;20512;-66
2021/06/22 07:25:02;;;;;;;11.27;2.33;;;;;;;41.67;20.66;100275.81;5047829;28;20502;-64
2021/06/22 07:27:28;;;;;;;17.83;2.70;;;;;;;42.93;19.48;100277.88;5014249;28;20533;-66
2021/06/22 07:29:54;;;;;;;17.48;2.85;;;;;;;43.12;19.77;100279.50;5064029;28;20074;-65
2021/06/22 07:32:20;;;;;;;13.55;2.30;;;;;;;42.99;18.35;100279.69;5048022;28;20072;-63
2021/06/22 07:34:46;;;;;;;10.13;2.35;;;;;;;42.46;17.80;100269.44;5049221;28;20150;-64
2021/06/22 07:37:11;;;;;;;11.40;2.75;;;;;;;40.98;21.73;100279.53;5048436;28;20395;-63
2021/06/22 07:39:37;;;;;;;11.70;3.28;;;;;;;41.33;22.20;100266.16;5048412;28;20045;-63
2021/06/22 07:42:03;;;;;;;17.65;3.65;;;;;;;40.49;22.22;100266.50;5047530;28;20131;-64
2021/06/22 07:44:29;;;;;;;10.05;2.60;;;;;;;40.56;22.10;100276.38;5047811;28;20045;-64
2021/06/22 07:46:55;;;;;;;14.55;2.60;;;;;;;41.08;21.51;100281.78;5048071;28;20071;-63
2021/06/22 07:49:20;;;;;;;14.10;2.42;;;;;;;41.76;21.04;100285.44;5039047;28;20418;-63
2021/06/22 07:51:46;;;;;;;12.05;2.70;;;;;;;42.24;20.19;100276.44;5037800;28;20044;-63
2021/06/22 07:54:13;;;;;;;20.63;3.17;;;;;;;42.48;20.06;100286.56;5024458;28;20047;-65
2021/06/22 07:56:39;;;;;;;15.07;3.45;;;;;;;41.36;21.69;100278.59;5038619;28;20047;-64
2021/06/22 07:59:05;;;;;;;23.35;3.88;;;;;;;41.03;21.88;100285.19;5039509;28;20053;-65
2021/06/22 08:01:31;;;;;;;18.65;2.60;;;;;;;41.48;21.10;100274.88;5037147;28;20183;-64
2021/06/22 08:03:56;;;;;;;13.63;2.85;;;;;;;41.49;21.09;100294.97;5038295;28;20082;-63
2021/06/22 08:06:22;;;;;;;13.93;2.92;;;;;;;40.42;22.49;100293.94;5036996;28;20045;-65
2021/06/22 08:08:48;;;;;;;18.42;2.78;;;;;;;40.33;22.23;100287.84;5052427;28;20144;-65
2021/06/22 08:11:14;;;;;;;16.88;2.53;;;;;;;41.23;21.25;100285.06;5038201;28;20053;-64
2021/06/22 08:13:40;;;;;;;13.50;2.92;;;;;;;41.50;20.61;100302.13;5052579;28;20499;-64
2021/06/22 08:16:06;;;;;;;14.60;2.78;;;;;;;42.02;20.01;100286.22;5049452;28;20039;-64
2021/06/22 08:18:34;;;;;;;14.18;3.30;;;;;;;42.91;19.49;100293.78;5046805;28;20051;-61
2021/06/22 08:21:01;;;;;;;15.38;2.42;;;;;;;41.77;19.99;100294.53;5047019;28;20037;-64
2021/06/22 08:23:27;;;;;;;13.07;2.30;;;;;;;42.23;19.57;100295.94;5045812;28;20102;-65
2021/06/22 08:25:53;;;;;;;13.85;2.50;;;;;;;42.42;19.09;100290.19;5048122;28;20490;-64
2021/06/22 08:28:19;;;;;;;13.38;2.33;;;;;;;42.20;19.12;100291.72;5047898;28;20037;-65
2021/06/22 08:30:46;;;;;;;11.45;2.45;;;;;;;42.27;19.51;100281.47;5050483;28;20049;-64
2021/06/22 08:33:12;;;;;;;16.50;2.50;;;;;;;42.89;18.83;100298.69;5052993;28;20445;-64
2021/06/22 08:35:38;;;;;;;14.65;2.65;;;;;;;42.36;19.67;100287.50;5050456;28;20516;-62
2021/06/22 08:38:08;;;;;;;6.97;2.33;;;;;;;40.39;21.09;100294.38;5051379;28;20041;-63
2021/06/22 08:40:35;;;;;;;13.40;2.35;;;;;;;39.81;21.99;100279.75;5053268;28;20110;-62
2021/06/22 08:43:00;;;;;;;14.15;2.60;;;;;;;38.92;22.76;100280.13;5052077;28;20048;-63
2021/06/22 08:45:26;;;;;;;17.00;2.53;;;;;;;39.60;22.35;100287.16;5052961;28;20568;-64
2021/06/22 08:47:52;;;;;;;16.67;2.42;;;;;;;40.52;21.70;100294.31;5052086;28;20079;-69
2021/06/22 08:50:21;;;;;;;11.23;3.22;;;;;;;40.13;22.67;100286.22;5034392;28;20497;-77
2021/06/22 08:52:47;;;;;;;8.73;2.60;;;;;;;39.14;23.30;100284.41;5034992;28;20116;-74
2021/06/22 08:55:29;;;;;;;25.40;3.30;;;;;;;39.79;22.97;100279.13;5053147;28;20616;-76
2021/06/22 08:58:06;;;;;;;19.98;3.05;;;;;;;39.61;22.98;100274.31;5065582;28;20131;-78
2021/06/22 09:00:39;;;;;;;14.95;2.65;;;;;;;39.58;23.83;100274.75;5067388;28;20475;-78
2021/06/22 09:03:14;;;;;;;13.75;3.20;;;;;;;38.86;24.07;100267.28;5052576;28;20098;-79
2021/06/22 09:05:48;;;;;;;14.45;3.00;;;;;;;37.98;24.50;100260.81;5067029;28;20050;-81
2021/06/22 09:08:23;;;;;;;14.63;3.13;;;;;;;37.10;26.22;100257.59;5050267;28;20063;-78
2021/06/22 09:10:53;;;;;;;13.90;2.63;;;;;;;36.73;26.82;100258.69;5035111;28;20037;-79
2021/06/22 09:13:25;;;;;;;20.17;3.80;;;;;;;36.58;27.00;100274.25;5052237;28;20061;-79
2021/06/22 09:15:53;;;;;;;16.63;4.80;;;;;;;36.67;27.05;100256.72;5034254;28;20048;-80
2021/06/22 09:18:36;;;;;;;17.65;3.10;;;;;;;36.83;27.42;100264.69;5068054;28;20082;-78
2021/06/22 09:21:04;;;;;;;20.33;3.03;;;;;;;35.64;28.26;100254.91;5049678;28;20060;-79
2021/06/22 09:23:34;;;;;;;13.70;2.28;;;;;;;34.82;29.45;100259.34;5049665;28;20044;-78
2021/06/22 09:26:01;;;;;;;19.10;3.28;;;;;;;34.46;30.44;100258.22;5050617;28;20057;-76
2021/06/22 09:28:31;;;;;;;19.42;3.00;;;;;;;34.48;30.00;100250.72;5049569;28;20041;-74
2021/06/22 09:31:05;;;;;;;14.38;2.63;;;;;;;34.06;30.04;100241.03;5050175;28;20563;-76
2021/06/22 09:33:39;;;;;;;21.38;3.05;;;;;;;34.31;30.29;100258.94;5051620;28;20048;-73
2021/06/22 09:36:26;;;;;;;19.60;3.03;;;;;;;34.12;30.48;100248.47;5065732;28;20056;-76
2021/06/22 09:38:59;;;;;;;22.92;3.05;;;;;;;34.32;30.43;100247.06;5050232;28;20510;-72
2021/06/22 09:41:31;;;;;;;17.60;3.00;;;;;;;33.83;28.28;100250.97;5034083;28;20041;-73
2021/06/22 09:44:08;;;;;;;14.80;2.75;;;;;;;33.50;28.40;100251.03;5016717;28;20515;-75
2021/06/22 09:46:55;;;;;;;23.17;2.80;;;;;;;33.32;28.74;100231.38;5049524;28;20077;-75
2021/06/22 09:49:24;;;;;;;13.93;2.30;;;;;;;33.25;28.54;100238.47;5016437;28;20051;-76
2021/06/22 09:52:04;;;;;;;20.15;3.35;;;;;;;33.38;28.11;100241.53;5049611;28;20052;-79
2021/06/22 09:54:32;;;;;;;20.60;3.03;;;;;;;33.50;25.78;100248.31;5017719;28;20048;-77
2021/06/22 09:57:03;;;;;;;24.77;2.90;;;;;;;33.20;24.35;100241.69;5048894;28;20041;-75
2021/06/22 09:59:31;;;;;;;20.35;2.90;;;;;;;33.12;26.20;100250.69;5050014;28;20227;-77
2021/06/22 10:02:10;;;;;;;16.13;2.67;;;;;;;33.05;27.18;100246.09;5034685;28;20048;-76
2021/06/22 10:04:37;;;;;;;18.60;3.13;;;;;;;33.18;27.62;100249.16;5034426;28;20037;-76
2021/06/22 10:07:03;;;;;;;22.48;3.30;;;;;;;33.31;27.27;100248.66;5049593;28;20053;-75
2021/06/22 10:09:33;;;;;;;18.13;2.47;;;;;;;33.18;26.58;100247.28;5048657;28;20051;-74
2021/06/22 10:12:03;;;;;;;16.27;3.13;;;;;;;33.10;26.53;100244.59;5065022;28;20584;-76
2021/06/22 10:14:51;;;;;;;26.50;3.20;;;;;;;33.10;26.81;100250.00;5031494;28;20041;-76
2021/06/22 10:17:20;;;;;;;15.43;2.95;;;;;;;33.10;25.98;100244.59;5028426;28;20046;-76
2021/06/22 10:19:53;;;;;;;17.73;2.90;;;;;;;33.33;26.31;100233.06;5027186;28;20053;-68
2021/06/22 10:22:21;;;;;;;21.00;2.90;;;;;;;33.25;27.62;100238.47;5009887;28;20059;-69
2021/06/22 10:24:47;;;;;;;10.30;2.42;;;;;;;33.26;27.50;100237.44;5027630;28;20041;-70
2021/06/22 10:27:15;;;;;;;16.90;3.05;;;;;;;33.04;27.22;100223.56;5027769;28;20045;-70
2021/06/22 10:29:54;;;;;;;20.55;2.78;;;;;;;32.92;27.82;100233.06;5030324;28;20045;-69
2021/06/22 10:32:23;;;;;;;19.35;2.70;;;;;;;32.83;26.61;100225.94;5043365;28;20037;-70
2021/06/22 10:34:54;;;;;;;17.10;2.95;;;;;;;32.84;25.73;100233.06;5038541;28;20041;-69
2021/06/22 10:37:31;;;;;;;22.27;2.92;;;;;;;32.75;26.31;100239.47;5040536;28;20086;-70
2021/06/22 10:40:11;;;;;;;29.25;3.30;;;;;;;32.79;24.98;100238.16;5050014;28;20041;-68
2021/06/22 10:42:58;;;;;;;24.85;3.28;;;;;;;32.92;27.00;100240.34;5030135;28;20069;-66
2021/06/22 10:45:24;;;;;;;20.92;2.85;;;;;;;32.76;27.51;100246.56;5048839;28;20172;-68
2021/06/22 10:47:50;;;;;;;24.40;3.15;;;;;;;32.83;27.48;100232.22;5012476;28;20041;-66
2021/06/22 10:50:18;;;;;;;11.00;2.60;;;;;;;32.79;27.46;100235.44;5029408;28;20183;-69
2021/06/22 10:52:45;;;;;;;20.05;3.40;;;;;;;32.77;28.02;100229.31;4995312;28;20052;-69
2021/06/22 10:55:21;;;;;;;17.05;2.60;;;;;;;32.76;26.76;100224.91;5012086;28;20135;-69
2021/06/22 10:57:59;;;;;;;17.85;3.42;;;;;;;32.73;26.69;100227.94;5012296;28;20044;-69
2021/06/22 11:00:28;;;;;;;19.75;2.85;;;;;;;32.81;27.35;100222.56;4995631;28;20119;-68
2021/06/22 11:03:34;;;;;;;19.25;2.92;;;;;;;32.79;26.93;100219.16;5029388;28;20071;-68
2021/06/22 11:06:19;;;;;;;18.30;2.90;;;;;;;32.89;27.25;100225.28;5029880;28;20060;-68
2021/06/22 11:08:45;;;;;;;17.55;2.95;;;;;;;32.84;27.18;100212.22;5030403;28;20075;-67
2021/06/22 11:11:11;;;;;;;16.33;2.63;;;;;;;32.88;27.36;100222.72;5012074;28;20099;-67
2021/06/22 11:13:45;;;;;;;17.55;2.88;;;;;;;32.83;27.46;100215.09;5028742;28;20057;-69
2021/06/22 11:16:14;;;;;;;21.58;3.08;;;;;;;32.92;26.83;100222.22;5027534;28;20079;-69
2021/06/22 11:19:01;;;;;;;27.35;2.83;;;;;;;32.91;26.61;100212.41;5028915;28;20049;-69
2021/06/22 11:21:28;;;;;;;24.65;3.35;;;;;;;32.93;26.83;100204.09;5011922;28;20034;-70
2021/06/22 11:23:57;;;;;;;20.58;2.85;;;;;;;32.98;26.95;100213.41;5027651;28;20049;-70